BLI weather

Bellingham International Airport
Bellingham, Washington, United States

Public forecast

Using degrees Fahrenheit for public forecast. Weather courtesy of forecast.io.

Current aviation weather report (METAR) for Bellingham International Airport

Retrieved 2019/10/22 08:53 UTC (50 minutes ago):

KBLI 220853Z AUTO 18008G16KT 10SM CLR 15/12 A3010 RMK AO2 SLP198 T01500117 51013 TSNO

Aviation forecast (TAF) for Bellingham International Airport

Retrieved 2019/10/22 06:24 UTC (3 hours ago):

TAF KBLI 220520Z 2206/2306 17010G20KT 4SM -RA BR OVC010 FM220800 20006KT P6SM OVC015 FM221800 20011KT P6SM BKN030 FM230000 21005KT P6SM BKN050